sensor_id;sensor_type;location;lat;lon;timestamp;pressure;altitude;pressure_sealevel;temperature;humidity
34658;BME280;20865;43.312;27.152;2022-12-18T00:01:29;101139.66;;;18.24;43.27
34658;BME280;20865;43.312;27.152;2022-12-18T00:03:58;101149.13;;;18.24;43.28
34658;BME280;20865;43.312;27.152;2022-12-18T00:06:28;101149.91;;;18.26;43.16
34658;BME280;20865;43.312;27.152;2022-12-18T00:08:57;101162.95;;;18.26;43.18
34658;BME280;20865;43.312;27.152;2022-12-18T00:11:27;101165.13;;;18.28;43.20
34658;BME280;20865;43.312;27.152;2022-12-18T00:13:56;101169.66;;;18.28;43.26
34658;BME280;20865;43.312;27.152;2022-12-18T00:16:26;101174.50;;;18.30;43.21
34658;BME280;20865;43.312;27.152;2022-12-18T00:18:56;101184.88;;;18.30;43.13
34658;BME280;20865;43.312;27.152;2022-12-18T00:21:24;101183.77;;;18.35;43.12
34658;BME280;20865;43.312;27.152;2022-12-18T00:23:52;101191.06;;;18.32;43.06
34658;BME280;20865;43.312;27.152;2022-12-18T00:26:25;101191.63;;;18.30;42.77
34658;BME280;20865;43.312;27.152;2022-12-18T00:28:53;101194.10;;;18.35;42.78
34658;BME280;20865;43.312;27.152;2022-12-18T00:31:23;101194.16;;;18.52;42.07
34658;BME280;20865;43.312;27.152;2022-12-18T00:33:54;101193.78;;;18.60;42.17
34658;BME280;20865;43.312;27.152;2022-12-18T00:36:24;101185.51;;;18.63;42.06
34658;BME280;20865;43.312;27.152;2022-12-18T00:38:54;101193.64;;;18.44;42.41
34658;BME280;20865;43.312;27.152;2022-12-18T00:41:23;101199.99;;;18.35;42.73
34658;BME280;20865;43.312;27.152;2022-12-18T00:44:12;101197.83;;;18.32;42.82
34658;BME280;20865;43.312;27.152;2022-12-18T00:46:40;101211.83;;;18.32;42.76
34658;BME280;20865;43.312;27.152;2022-12-18T00:49:08;101214.03;;;18.24;42.66
34658;BME280;20865;43.312;27.152;2022-12-18T00:51:36;101212.51;;;18.27;42.63
34658;BME280;20865;43.312;27.152;2022-12-18T00:54:04;101212.09;;;18.17;42.61
34658;BME280;20865;43.312;27.152;2022-12-18T00:56:32;101220.37;;;18.23;42.65
34658;BME280;20865;43.312;27.152;2022-12-18T00:58:59;101215.38;;;18.24;42.66
34658;BME280;20865;43.312;27.152;2022-12-18T01:01:27;101210.99;;;18.21;42.63
34658;BME280;20865;43.312;27.152;2022-12-18T01:03:55;101200.12;;;18.13;42.75
34658;BME280;20865;43.312;27.152;2022-12-18T01:06:23;101188.06;;;18.20;42.67
34658;BME280;20865;43.312;27.152;2022-12-18T01:08:50;101195.30;;;18.19;42.51
34658;BME280;20865;43.312;27.152;2022-12-18T01:11:19;101198.63;;;18.16;42.46
34658;BME280;20865;43.312;27.152;2022-12-18T01:13:47;101203.92;;;18.08;42.55
34658;BME280;20865;43.312;27.152;2022-12-18T01:16:16;101198.86;;;18.11;42.34
34658;BME280;20865;43.312;27.152;2022-12-18T01:18:44;101194.31;;;18.12;42.62
34658;BME280;20865;43.312;27.152;2022-12-18T01:21:14;101207.02;;;18.09;42.98
34658;BME280;20865;43.312;27.152;2022-12-18T01:23:42;101207.73;;;18.04;43.25
34658;BME280;20865;43.312;27.152;2022-12-18T01:26:15;101214.14;;;18.02;43.30
34658;BME280;20865;43.312;27.152;2022-12-18T01:28:43;101215.19;;;17.99;43.33
34658;BME280;20865;43.312;27.152;2022-12-18T01:31:12;101210.09;;;18.02;43.19
34658;BME280;20865;43.312;27.152;2022-12-18T01:33:41;101211.58;;;17.99;43.31
34658;BME280;20865;43.312;27.152;2022-12-18T01:36:23;101213.84;;;17.99;43.31
34658;BME280;20865;43.312;27.152;2022-12-18T01:38:52;101215.19;;;17.99;43.17
34658;BME280;20865;43.312;27.152;2022-12-18T01:41:26;101216.11;;;17.98;43.15
34658;BME280;20865;43.312;27.152;2022-12-18T01:43:57;101226.63;;;17.96;43.08
34658;BME280;20865;43.312;27.152;2022-12-18T01:46:26;101220.88;;;17.93;43.05
34658;BME280;20865;43.312;27.152;2022-12-18T01:49:01;101239.71;;;17.95;43.04
34658;BME280;20865;43.312;27.152;2022-12-18T01:51:27;101249.73;;;17.93;42.85
34658;BME280;20865;43.312;27.152;2022-12-18T01:53:55;101256.77;;;17.87;42.70
34658;BME280;20865;43.312;27.152;2022-12-18T01:56:24;101253.92;;;17.90;42.78
34658;BME280;20865;43.312;27.152;2022-12-18T01:58:58;101253.05;;;17.89;42.81
34658;BME280;20865;43.312;27.152;2022-12-18T02:01:25;101250.22;;;17.82;42.89
34658;BME280;20865;43.312;27.152;2022-12-18T02:03:53;101250.63;;;17.83;42.77
34658;BME280;20865;43.312;27.152;2022-12-18T02:06:33;101246.00;;;17.85;42.64
34658;BME280;20865;43.312;27.152;2022-12-18T02:08:58;101248.44;;;17.91;42.51
34658;BME280;20865;43.312;27.152;2022-12-18T02:11:39;101247.52;;;17.92;42.41
34658;BME280;20865;43.312;27.152;2022-12-18T02:16:48;101255.06;;;17.84;42.11
34658;BME280;20865;43.312;27.152;2022-12-18T02:22:08;101261.83;;;17.84;42.09
34658;BME280;20865;43.312;27.152;2022-12-18T02:24:36;101267.28;;;17.72;41.69
34658;BME280;20865;43.312;27.152;2022-12-18T02:27:06;101274.81;;;17.76;41.77
34658;BME280;20865;43.312;27.152;2022-12-18T02:29:39;101280.14;;;17.77;41.69
34658;BME280;20865;43.312;27.152;2022-12-18T02:32:14;101286.41;;;17.78;41.77
34658;BME280;20865;43.312;27.152;2022-12-18T02:34:39;101288.25;;;17.77;41.68
34658;BME280;20865;43.312;27.152;2022-12-18T02:37:09;101288.72;;;17.77;41.66
34658;BME280;20865;43.312;27.152;2022-12-18T02:39:40;101298.58;;;17.78;41.62
34658;BME280;20865;43.312;27.152;2022-12-18T02:42:08;101299.62;;;17.74;41.70
34658;BME280;20865;43.312;27.152;2022-12-18T02:44:44;101307.11;;;17.79;41.52
34658;BME280;20865;43.312;27.152;2022-12-18T02:47:13;101299.14;;;17.76;41.51
34658;BME280;20865;43.312;27.152;2022-12-18T02:58:13;101323.81;;;17.67;41.14
34658;BME280;20865;43.312;27.152;2022-12-18T03:00:46;101320.70;;;17.55;41.21
34658;BME280;20865;43.312;27.152;2022-12-18T03:03:16;101317.47;;;17.47;41.28
34658;BME280;20865;43.312;27.152;2022-12-18T03:05:52;101316.64;;;17.45;41.25
34658;BME280;20865;43.312;27.152;2022-12-18T03:08:31;101326.49;;;17.46;41.37
34658;BME280;20865;43.312;27.152;2022-12-18T03:11:11;101332.77;;;17.47;41.29
34658;BME280;20865;43.312;27.152;2022-12-18T03:13:54;101334.28;;;17.44;41.18
34658;BME280;20865;43.312;27.152;2022-12-18T03:16:27;101334.72;;;17.43;41.02
34658;BME280;20865;43.312;27.152;2022-12-18T03:18:58;101331.30;;;17.18;41.46
34658;BME280;20865;43.312;27.152;2022-12-18T03:21:25;101339.00;;;17.17;41.51
34658;BME280;20865;43.312;27.152;2022-12-18T03:23:53;101338.00;;;17.19;41.69
34658;BME280;20865;43.312;27.152;2022-12-18T03:26:23;101344.80;;;17.18;41.54
34658;BME280;20865;43.312;27.152;2022-12-18T03:28:55;101346.98;;;17.08;41.56
34658;BME280;20865;43.312;27.152;2022-12-18T03:31:24;101344.92;;;17.14;41.53
34658;BME280;20865;43.312;27.152;2022-12-18T03:33:55;101346.95;;;17.09;41.51
34658;BME280;20865;43.312;27.152;2022-12-18T03:36:24;101338.29;;;17.11;41.40
34658;BME280;20865;43.312;27.152;2022-12-18T03:38:52;101346.05;;;17.31;41.02
34658;BME280;20865;43.312;27.152;2022-12-18T03:41:41;101350.70;;;17.27;41.08
34658;BME280;20865;43.312;27.152;2022-12-18T03:49:35;101395.23;;;17.17;40.88
34658;BME280;20865;43.312;27.152;2022-12-18T03:52:05;101396.66;;;17.16;41.03
34658;BME280;20865;43.312;27.152;2022-12-18T03:54:34;101397.92;;;17.17;41.07
34658;BME280;20865;43.312;27.152;2022-12-18T03:57:09;101394.95;;;17.13;40.94
34658;BME280;20865;43.312;27.152;2022-12-18T03:59:37;101405.27;;;17.13;40.98
34658;BME280;20865;43.312;27.152;2022-12-18T04:02:07;101418.41;;;17.11;41.02
34658;BME280;20865;43.312;27.152;2022-12-18T04:04:37;101416.59;;;17.11;40.96
34658;BME280;20865;43.312;27.152;2022-12-18T04:07:06;101432.34;;;17.12;40.96
34658;BME280;20865;43.312;27.152;2022-12-18T04:09:36;101444.17;;;17.08;40.91
34658;BME280;20865;43.312;27.152;2022-12-18T04:12:06;101450.88;;;17.09;40.95
34658;BME280;20865;43.312;27.152;2022-12-18T04:14:33;101454.81;;;17.12;40.86
34658;BME280;20865;43.312;27.152;2022-12-18T04:17:02;101461.33;;;17.07;40.73
34658;BME280;20865;43.312;27.152;2022-12-18T04:19:30;101461.91;;;17.03;40.74
34658;BME280;20865;43.312;27.152;2022-12-18T04:21:58;101469.14;;;17.03;40.74
34658;BME280;20865;43.312;27.152;2022-12-18T04:24:25;101465.67;;;16.99;40.66
34658;BME280;20865;43.312;27.152;2022-12-18T04:26:53;101466.30;;;16.94;40.40
34658;BME280;20865;43.312;27.152;2022-12-18T04:29:21;101464.19;;;16.90;40.68
34658;BME280;20865;43.312;27.152;2022-12-18T04:31:48;101466.38;;;16.81;40.43
34658;BME280;20865;43.312;27.152;2022-12-18T04:34:16;101463.72;;;16.79;40.61
34658;BME280;20865;43.312;27.152;2022-12-18T04:36:44;101474.23;;;16.75;40.29
34658;BME280;20865;43.312;27.152;2022-12-18T04:39:11;101468.87;;;16.74;40.25
34658;BME280;20865;43.312;27.152;2022-12-18T04:41:39;101477.98;;;16.70;40.04
34658;BME280;20865;43.312;27.152;2022-12-18T04:44:07;101482.58;;;16.67;39.65
34658;BME280;20865;43.312;27.152;2022-12-18T04:46:35;101486.26;;;16.65;39.36
34658;BME280;20865;43.312;27.152;2022-12-18T04:49:03;101493.22;;;16.59;39.10
34658;BME280;20865;43.312;27.152;2022-12-18T04:51:30;101504.37;;;16.61;38.94
34658;BME280;20865;43.312;27.152;2022-12-18T04:53:58;101516.43;;;16.51;38.36
34658;BME280;20865;43.312;27.152;2022-12-18T04:56:26;101519.13;;;16.51;38.57
34658;BME280;20865;43.312;27.152;2022-12-18T04:58:53;101531.58;;;16.42;38.37
34658;BME280;20865;43.312;27.152;2022-12-18T05:01:21;101532.79;;;16.47;38.76
34658;BME280;20865;43.312;27.152;2022-12-18T05:03:50;101522.48;;;16.33;38.53
34658;BME280;20865;43.312;27.152;2022-12-18T05:06:18;101527.23;;;16.38;38.63
34658;BME280;20865;43.312;27.152;2022-12-18T05:08:46;101532.19;;;16.25;38.38
34658;BME280;20865;43.312;27.152;2022-12-18T05:11:14;101539.06;;;16.20;38.43
34658;BME280;20865;43.312;27.152;2022-12-18T05:13:45;101541.31;;;16.08;38.26
34658;BME280;20865;43.312;27.152;2022-12-18T05:16:13;101541.89;;;15.89;38.45
34658;BME280;20865;43.312;27.152;2022-12-18T05:18:41;101545.25;;;15.83;38.70
34658;BME280;20865;43.312;27.152;2022-12-18T05:21:09;101558.98;;;15.75;38.70
34658;BME280;20865;43.312;27.152;2022-12-18T05:23:37;101559.54;;;15.71;38.66
34658;BME280;20865;43.312;27.152;2022-12-18T05:26:06;101565.61;;;15.63;38.96
34658;BME280;20865;43.312;27.152;2022-12-18T05:28:35;101576.97;;;15.58;39.08
34658;BME280;20865;43.312;27.152;2022-12-18T05:31:04;101579.91;;;15.51;39.29
34658;BME280;20865;43.312;27.152;2022-12-18T05:33:33;101591.62;;;15.49;39.54
34658;BME280;20865;43.312;27.152;2022-12-18T05:36:03;101592.98;;;15.48;39.73
34658;BME280;20865;43.312;27.152;2022-12-18T05:38:32;101603.41;;;15.45;40.02
34658;BME280;20865;43.312;27.152;2022-12-18T05:41:00;101609.27;;;15.45;40.14
34658;BME280;20865;43.312;27.152;2022-12-18T05:43:27;101607.31;;;15.50;39.95
34658;BME280;20865;43.312;27.152;2022-12-18T05:45:55;101612.52;;;15.56;39.91
34658;BME280;20865;43.312;27.152;2022-12-18T05:48:23;101622.53;;;15.51;39.97
34658;BME280;20865;43.312;27.152;2022-12-18T05:50:51;101621.95;;;15.56;39.84
34658;BME280;20865;43.312;27.152;2022-12-18T05:53:20;101626.30;;;15.60;39.96
34658;BME280;20865;43.312;27.152;2022-12-18T05:55:48;101638.28;;;15.65;40.02
34658;BME280;20865;43.312;27.152;2022-12-18T05:58:16;101643.58;;;15.69;39.92
34658;BME280;20865;43.312;27.152;2022-12-18T06:00:45;101649.88;;;15.68;39.73
34658;BME280;20865;43.312;27.152;2022-12-18T06:03:13;101661.44;;;15.72;39.31
34658;BME280;20865;43.312;27.152;2022-12-18T06:05:43;101669.59;;;15.70;39.64
34658;BME280;20865;43.312;27.152;2022-12-18T06:08:12;101679.52;;;15.68;39.40
34658;BME280;20865;43.312;27.152;2022-12-18T06:10:40;101679.24;;;15.61;38.91
34658;BME280;20865;43.312;27.152;2022-12-18T06:13:08;101684.92;;;15.52;38.77
34658;BME280;20865;43.312;27.152;2022-12-18T06:15:38;101685.03;;;15.47;39.06
34658;BME280;20865;43.312;27.152;2022-12-18T06:18:06;101687.80;;;15.44;39.19
34658;BME280;20865;43.312;27.152;2022-12-18T06:20:33;101696.67;;;15.48;38.93
34658;BME280;20865;43.312;27.152;2022-12-18T06:23:03;101708.80;;;15.48;39.19
34658;BME280;20865;43.312;27.152;2022-12-18T06:25:30;101710.36;;;15.40;38.97
34658;BME280;20865;43.312;27.152;2022-12-18T06:27:58;101708.47;;;15.44;38.85
34658;BME280;20865;43.312;27.152;2022-12-18T06:30:26;101723.28;;;15.44;38.84
34658;BME280;20865;43.312;27.152;2022-12-18T06:32:54;101718.02;;;15.23;39.22
34658;BME280;20865;43.312;27.152;2022-12-18T06:35:21;101726.98;;;15.40;38.93
34658;BME280;20865;43.312;27.152;2022-12-18T06:37:49;101729.72;;;15.22;39.21
34658;BME280;20865;43.312;27.152;2022-12-18T06:40:17;101729.80;;;15.19;39.25
34658;BME280;20865;43.312;27.152;2022-12-18T06:42:44;101734.42;;;15.30;39.07
34658;BME280;20865;43.312;27.152;2022-12-18T06:45:12;101734.13;;;15.08;39.58
34658;BME280;20865;43.312;27.152;2022-12-18T06:47:40;101735.53;;;15.07;39.69
34658;BME280;20865;43.312;27.152;2022-12-18T06:50:08;101756.00;;;15.12;39.79
34658;BME280;20865;43.312;27.152;2022-12-18T06:52:36;101744.94;;;15.23;39.42
34658;BME280;20865;43.312;27.152;2022-12-18T06:55:04;101752.01;;;15.27;38.93
34658;BME280;20865;43.312;27.152;2022-12-18T06:57:32;101761.56;;;15.22;39.05
34658;BME280;20865;43.312;27.152;2022-12-18T06:59:59;101757.99;;;15.22;39.19
34658;BME280;20865;43.312;27.152;2022-12-18T07:02:27;101764.38;;;15.18;39.12
34658;BME280;20865;43.312;27.152;2022-12-18T07:04:55;101763.06;;;15.16;39.25
34658;BME280;20865;43.312;27.152;2022-12-18T07:07:22;101765.67;;;15.19;39.16
34658;BME280;20865;43.312;27.152;2022-12-18T07:09:50;101770.23;;;15.17;39.19
34658;BME280;20865;43.312;27.152;2022-12-18T07:12:18;101780.67;;;15.13;39.36
34658;BME280;20865;43.312;27.152;2022-12-18T07:14:46;101788.00;;;15.24;39.36
34658;BME280;20865;43.312;27.152;2022-12-18T07:17:14;101791.59;;;15.23;39.38
34658;BME280;20865;43.312;27.152;2022-12-18T07:19:41;101792.91;;;15.25;39.57
34658;BME280;20865;43.312;27.152;2022-12-18T07:22:09;101791.91;;;15.29;38.99
34658;BME280;20865;43.312;27.152;2022-12-18T07:24:36;101802.37;;;15.41;38.98
34658;BME280;20865;43.312;27.152;2022-12-18T07:27:04;101804.36;;;15.33;39.25
34658;BME280;20865;43.312;27.152;2022-12-18T07:29:32;101813.94;;;15.45;39.06
34658;BME280;20865;43.312;27.152;2022-12-18T07:31:59;101819.34;;;15.43;38.83
34658;BME280;20865;43.312;27.152;2022-12-18T07:34:28;101823.13;;;15.36;38.75
34658;BME280;20865;43.312;27.152;2022-12-18T07:36:56;101826.70;;;15.37;38.88
34658;BME280;20865;43.312;27.152;2022-12-18T07:39:24;101830.21;;;15.22;39.08
34658;BME280;20865;43.312;27.152;2022-12-18T07:41:51;101837.06;;;15.36;39.29
34658;BME280;20865;43.312;27.152;2022-12-18T07:44:37;101843.30;;;15.38;39.13
34658;BME280;20865;43.312;27.152;2022-12-18T07:47:05;101852.80;;;15.35;39.09
34658;BME280;20865;43.312;27.152;2022-12-18T07:49:34;101849.33;;;15.30;39.10
34658;BME280;20865;43.312;27.152;2022-12-18T07:52:02;101849.23;;;15.34;39.35
34658;BME280;20865;43.312;27.152;2022-12-18T07:54:30;101840.96;;;15.24;39.09
34658;BME280;20865;43.312;27.152;2022-12-18T07:56:58;101849.67;;;15.16;39.55
34658;BME280;20865;43.312;27.152;2022-12-18T07:59:27;101859.49;;;14.99;39.68
34658;BME280;20865;43.312;27.152;2022-12-18T08:01:54;101862.08;;;14.86;39.80
34658;BME280;20865;43.312;27.152;2022-12-18T08:04:22;101863.85;;;14.85;39.85
34658;BME280;20865;43.312;27.152;2022-12-18T08:06:49;101858.61;;;14.98;39.93
34658;BME280;20865;43.312;27.152;2022-12-18T08:09:17;101865.99;;;14.90;39.71
34658;BME280;20865;43.312;27.152;2022-12-18T08:11:45;101858.75;;;15.12;39.47
34658;BME280;20865;43.312;27.152;2022-12-18T08:14:13;101863.11;;;15.17;39.74
34658;BME280;20865;43.312;27.152;2022-12-18T08:16:41;101873.22;;;15.06;39.93
34658;BME280;20865;43.312;27.152;2022-12-18T08:19:08;101868.91;;;15.18;39.53
34658;BME280;20865;43.312;27.152;2022-12-18T08:21:36;101866.83;;;15.30;39.67
34658;BME280;20865;43.312;27.152;2022-12-18T08:24:04;101864.87;;;15.18;38.98
34658;BME280;20865;43.312;27.152;2022-12-18T08:26:32;101881.16;;;15.12;38.64
34658;BME280;20865;43.312;27.152;2022-12-18T08:29:00;101886.55;;;15.12;38.47
34658;BME280;20865;43.312;27.152;2022-12-18T08:31:29;101890.64;;;15.11;38.48
34658;BME280;20865;43.312;27.152;2022-12-18T08:33:57;101891.93;;;15.12;38.50
34658;BME280;20865;43.312;27.152;2022-12-18T08:36:25;101899.31;;;15.04;38.52
34658;BME280;20865;43.312;27.152;2022-12-18T08:38:53;101902.14;;;15.17;38.52
34658;BME280;20865;43.312;27.152;2022-12-18T08:41:21;101891.79;;;15.18;38.33
34658;BME280;20865;43.312;27.152;2022-12-18T08:43:48;101895.30;;;15.03;38.08
34658;BME280;20865;43.312;27.152;2022-12-18T08:46:39;101908.28;;;15.22;38.02
34658;BME280;20865;43.312;27.152;2022-12-18T08:49:08;101902.88;;;15.24;38.12
34658;BME280;20865;43.312;27.152;2022-12-18T08:51:37;101894.69;;;15.29;38.22
34658;BME280;20865;43.312;27.152;2022-12-18T08:54:05;101891.41;;;15.34;38.21
34658;BME280;20865;43.312;27.152;2022-12-18T08:56:33;101898.80;;;15.43;37.81
34658;BME280;20865;43.312;27.152;2022-12-18T08:59:02;101897.96;;;15.59;37.49
34658;BME280;20865;43.312;27.152;2022-12-18T09:01:30;101903.12;;;15.68;37.50
34658;BME280;20865;43.312;27.152;2022-12-18T09:03:58;101898.25;;;15.66;37.77
34658;BME280;20865;43.312;27.152;2022-12-18T09:06:26;101893.41;;;15.79;37.62
34658;BME280;20865;43.312;27.152;2022-12-18T09:08:53;101896.88;;;15.84;37.77
34658;BME280;20865;43.312;27.152;2022-12-18T09:11:23;101910.30;;;15.86;38.11
34658;BME280;20865;43.312;27.152;2022-12-18T09:13:51;101905.77;;;15.88;37.84
34658;BME280;20865;43.312;27.152;2022-12-18T09:16:21;101903.73;;;15.96;37.68
34658;BME280;20865;43.312;27.152;2022-12-18T09:18:49;101908.83;;;16.07;37.80
34658;BME280;20865;43.312;27.152;2022-12-18T09:21:19;101907.30;;;16.14;37.56
34658;BME280;20865;43.312;27.152;2022-12-18T09:23:51;101914.72;;;16.21;37.60
34658;BME280;20865;43.312;27.152;2022-12-18T09:26:20;101914.17;;;16.25;37.10
34658;BME280;20865;43.312;27.152;2022-12-18T09:28:48;101917.64;;;16.30;36.68
34658;BME280;20865;43.312;27.152;2022-12-18T09:31:18;101918.02;;;16.32;37.01
34658;BME280;20865;43.312;27.152;2022-12-18T09:33:46;101914.14;;;16.26;36.61
34658;BME280;20865;43.312;27.152;2022-12-18T09:36:16;101922.89;;;16.34;36.53
34658;BME280;20865;43.312;27.152;2022-12-18T09:38:44;101911.06;;;16.40;36.83
34658;BME280;20865;43.312;27.152;2022-12-18T09:41:43;101914.31;;;16.36;36.24
34658;BME280;20865;43.312;27.152;2022-12-18T09:44:20;101914.88;;;16.31;36.29
34658;BME280;20865;43.312;27.152;2022-12-18T09:49:46;101917.09;;;16.33;36.55
34658;BME280;20865;43.312;27.152;2022-12-18T09:55:46;101911.13;;;16.22;37.07
34658;BME280;20865;43.312;27.152;2022-12-18T09:57:24;101907.34;;;16.28;36.95
34658;BME280;20865;43.312;27.152;2022-12-18T10:00:02;101901.46;;;16.30;36.86
34658;BME280;20865;43.312;27.152;2022-12-18T10:02:25;101899.50;;;16.35;36.33
34658;BME280;20865;43.312;27.152;2022-12-18T10:05:09;101905.80;;;16.35;36.70
34658;BME280;20865;43.312;27.152;2022-12-18T10:07:49;101900.52;;;16.31;37.10
34658;BME280;20865;43.312;27.152;2022-12-18T10:10:40;101898.52;;;16.23;37.08
34658;BME280;20865;43.312;27.152;2022-12-18T10:15:49;101901.22;;;16.23;36.97
34658;BME280;20865;43.312;27.152;2022-12-18T10:18:25;101899.15;;;16.32;36.74
34658;BME280;20865;43.312;27.152;2022-12-18T10:20:53;101903.75;;;16.29;36.70
34658;BME280;20865;43.312;27.152;2022-12-18T10:23:39;101904.48;;;16.34;36.55
34658;BME280;20865;43.312;27.152;2022-12-18T10:26:03;101904.95;;;16.33;36.37
34658;BME280;20865;43.312;27.152;2022-12-18T10:28:37;101911.00;;;16.41;36.62
34658;BME280;20865;43.312;27.152;2022-12-18T10:31:14;101915.41;;;16.29;36.87
34658;BME280;20865;43.312;27.152;2022-12-18T10:33:42;101914.86;;;16.33;36.70
34658;BME280;20865;43.312;27.152;2022-12-18T10:36:10;101919.62;;;16.39;36.83
34658;BME280;20865;43.312;27.152;2022-12-18T10:38:38;101917.27;;;16.42;36.70
34658;BME280;20865;43.312;27.152;2022-12-18T10:46:37;101918.67;;;16.40;36.44
34658;BME280;20865;43.312;27.152;2022-12-18T10:49:05;101927.18;;;16.41;36.41
34658;BME280;20865;43.312;27.152;2022-12-18T10:51:36;101919.64;;;16.38;36.30
34658;BME280;20865;43.312;27.152;2022-12-18T10:54:12;101920.97;;;16.39;36.66
34658;BME280;20865;43.312;27.152;2022-12-18T10:56:36;101920.33;;;16.46;36.78
34658;BME280;20865;43.312;27.152;2022-12-18T10:59:07;101920.34;;;16.30;37.03
34658;BME280;20865;43.312;27.152;2022-12-18T11:01:50;101922.53;;;15.99;37.66
34658;BME280;20865;43.312;27.152;2022-12-18T11:04:27;101918.91;;;16.16;37.42
34658;BME280;20865;43.312;27.152;2022-12-18T11:07:06;101912.58;;;16.17;37.43
34658;BME280;20865;43.312;27.152;2022-12-18T11:09:32;101916.84;;;16.10;37.51
34658;BME280;20865;43.312;27.152;2022-12-18T11:12:03;101914.58;;;15.94;37.44
34658;BME280;20865;43.312;27.152;2022-12-18T11:14:43;101924.20;;;16.03;37.58
34658;BME280;20865;43.312;27.152;2022-12-18T11:17:28;101920.41;;;16.10;37.72
34658;BME280;20865;43.312;27.152;2022-12-18T11:20:04;101915.72;;;16.18;37.60
34658;BME280;20865;43.312;27.152;2022-12-18T11:22:29;101920.17;;;16.19;37.17
34658;BME280;20865;43.312;27.152;2022-12-18T11:27:52;101940.45;;;16.18;37.16
34658;BME280;20865;43.312;27.152;2022-12-18T11:30:26;101932.22;;;16.06;37.06
34658;BME280;20865;43.312;27.152;2022-12-18T11:35:53;101931.64;;;16.11;37.17
34658;BME280;20865;43.312;27.152;2022-12-18T11:38:23;101929.22;;;16.17;37.19
34658;BME280;20865;43.312;27.152;2022-12-18T11:41:07;101937.53;;;16.09;37.21
34658;BME280;20865;43.312;27.152;2022-12-18T11:43:59;101941.78;;;16.02;37.42
34658;BME280;20865;43.312;27.152;2022-12-18T11:46:43;101938.70;;;15.99;37.42
34658;BME280;20865;43.312;27.152;2022-12-18T11:51:48;101921.47;;;15.88;37.43
34658;BME280;20865;43.312;27.152;2022-12-18T11:54:15;101926.41;;;16.05;37.60
34658;BME280;20865;43.312;27.152;2022-12-18T12:00:02;101934.27;;;15.96;37.46
34658;BME280;20865;43.312;27.152;2022-12-18T12:16:22;101959.58;;;15.55;37.25
34658;BME280;20865;43.312;27.152;2022-12-18T12:21:59;101959.89;;;15.79;37.61
34658;BME280;20865;43.312;27.152;2022-12-18T12:24:33;101967.34;;;15.87;37.64
34658;BME280;20865;43.312;27.152;2022-12-18T12:27:20;101970.30;;;15.94;37.67
34658;BME280;20865;43.312;27.152;2022-12-18T12:32:45;101980.30;;;15.89;37.59
34658;BME280;20865;43.312;27.152;2022-12-18T12:38:43;101985.81;;;15.84;37.59
34658;BME280;20865;43.312;27.152;2022-12-18T12:40:27;101983.16;;;16.01;37.36
34658;BME280;20865;43.312;27.152;2022-12-18T12:43:05;101981.97;;;15.77;37.35
34658;BME280;20865;43.312;27.152;2022-12-18T12:45:50;101992.36;;;15.74;37.38
34658;BME280;20865;43.312;27.152;2022-12-18T12:48:38;101987.50;;;15.70;37.43
34658;BME280;20865;43.312;27.152;2022-12-18T12:51:17;101979.02;;;15.86;37.05
34658;BME280;20865;43.312;27.152;2022-12-18T12:53:42;101979.02;;;15.86;37.05
34658;BME280;20865;43.312;27.152;2022-12-18T12:56:11;101978.45;;;15.91;37.21
34658;BME280;20865;43.312;27.152;2022-12-18T13:04:37;101976.80;;;15.85;36.89
34658;BME280;20865;43.312;27.152;2022-12-18T13:07:14;101974.70;;;15.96;36.65
34658;BME280;20865;43.312;27.152;2022-12-18T13:12:58;101991.05;;;15.90;37.06
34658;BME280;20865;43.312;27.152;2022-12-18T13:15:48;101999.77;;;16.00;37.34
34658;BME280;20865;43.312;27.152;2022-12-18T13:18:22;102001.38;;;16.07;37.50
34658;BME280;20865;43.312;27.152;2022-12-18T13:23:34;102017.79;;;16.16;37.41
34658;BME280;20865;43.312;27.152;2022-12-18T13:34:23;102048.21;;;16.03;37.44
34658;BME280;20865;43.312;27.152;2022-12-18T13:36:53;102042.42;;;15.83;37.55
34658;BME280;20865;43.312;27.152;2022-12-18T13:39:24;102049.09;;;15.86;37.80
34658;BME280;20865;43.312;27.152;2022-12-18T13:42:31;102043.89;;;15.78;37.96
34658;BME280;20865;43.312;27.152;2022-12-18T13:44:26;102048.88;;;15.77;38.25
34658;BME280;20865;43.312;27.152;2022-12-18T13:46:53;102055.07;;;15.81;38.22
34658;BME280;20865;43.312;27.152;2022-12-18T13:51:58;102053.75;;;15.58;38.43
34658;BME280;20865;43.312;27.152;2022-12-18T13:54:40;102060.54;;;15.57;38.56
34658;BME280;20865;43.312;27.152;2022-12-18T13:57:30;102060.27;;;15.48;38.94
34658;BME280;20865;43.312;27.152;2022-12-18T14:00:14;102066.46;;;15.53;38.85
34658;BME280;20865;43.312;27.152;2022-12-18T14:02:28;102075.89;;;15.53;39.06
34658;BME280;20865;43.312;27.152;2022-12-18T14:04:56;102073.79;;;15.46;39.14
34658;BME280;20865;43.312;27.152;2022-12-18T14:07:28;102080.72;;;15.37;38.91
34658;BME280;20865;43.312;27.152;2022-12-18T14:09:59;102091.48;;;15.37;38.86
34658;BME280;20865;43.312;27.152;2022-12-18T14:12:31;102079.12;;;15.48;38.87
34658;BME280;20865;43.312;27.152;2022-12-18T14:15:31;102079.64;;;15.46;38.90
34658;BME280;20865;43.312;27.152;2022-12-18T14:18:33;102089.89;;;15.49;38.83
34658;BME280;20865;43.312;27.152;2022-12-18T14:21:02;102100.06;;;15.56;38.73
34658;BME280;20865;43.312;27.152;2022-12-18T14:23:37;102104.87;;;15.61;38.89
34658;BME280;20865;43.312;27.152;2022-12-18T14:26:28;102112.06;;;15.62;38.92
34658;BME280;20865;43.312;27.152;2022-12-18T14:28:55;102117.46;;;15.61;38.93